PGUA/UAM METAR and TAF weather

Enter ICAO airport designator
Station Type Date Time Source
PGUA METAR 2024/02/26 18:10 UTC NOAA

PGUA 261810Z AUTO 02013KT 10SM SCT019 OVC060 25/21 A2989 RMK AO2 SLP112 $


Station Type Date Time Source
PGUA Decoded METAR 2024/02/26 18:10 UTC NOAA

Andersen, Mariana Is, Andersen Air Force Base, GU, United States (PGUA) 13-35N 144-56E 187M
Feb 26, 2024 - 01:10 PM EST / 2024.02.26 1810 UTC
Wind: from the NNE (020 degrees) at 15 MPH (13 KT):0
Visibility: 10 mile(s):0
Sky conditions: overcast
Temperature: 77 F (25 C)
Dew Point: 69 F (21 C)
Relative Humidity: 78%
Pressure (altimeter): 29.89 in. Hg (1012 hPa)
ob: PGUA 261810Z AUTO 02013KT 10SM SCT019 OVC060 25/21 A2989 RMK AO2 SLP112
cycle: 18

Station Type Date Time Source
PGUA TAF 2024/02/26 18:59 UTC NOAA